EDV4986 KJFK-KMKE
Flight info
| Callsign | EDV4986 |
|---|---|
| Flight time | N/A |
| Altitude | 38000 |
| Route | DEEZZ6 CANDR J60 DJB CRL PEGEE GETCH LYSTR SUDDS |
| Aircraft | CRJ9/M-SDFGIRWY/S |
Departure
| Time | 2026-05-03 23:43 |
|---|---|
| Airport | John F. Kennedy International Airport (KJFK) |
Arrival
| Time | N/A |
|---|---|
| Airport | General Mitchell International Airport (KMKE) |
| Time | Latitude | Longitude | Altitude | Speed | Heading |
|---|---|---|---|---|---|
| 2026-05-03 22:57 | 40.64237 | -73.77841 | 19 ft | 0 kts | 326° |
| 2026-05-03 23:23 | 40.64237 | -73.77840 | 19 ft | 2 kts | 326° |
| 2026-05-03 23:23 | 40.64215 | -73.77826 | 19 ft | 4 kts | 344° |
| 2026-05-03 23:24 | 40.64190 | -73.77824 | 20 ft | 4 kts | 13° |
| 2026-05-03 23:24 | 40.64167 | -73.77840 | 19 ft | 4 kts | 41° |
| 2026-05-03 23:24 | 40.64150 | -73.77867 | 19 ft | 4 kts | 61° |
| 2026-05-03 23:24 | 40.64142 | -73.77899 | 22 ft | 4 kts | 85° |
| 2026-05-03 23:25 | 40.64147 | -73.77926 | 20 ft | 3 kts | 141° |
| 2026-05-03 23:25 | 40.64150 | -73.77928 | 20 ft | 0 kts | 151° |
| 2026-05-03 23:28 | 40.64142 | -73.77922 | 22 ft | 3 kts | 151° |
| 2026-05-03 23:28 | 40.64119 | -73.77906 | 19 ft | 5 kts | 151° |
| 2026-05-03 23:28 | 40.64083 | -73.77881 | 19 ft | 4 kts | 161° |
| 2026-05-03 23:29 | 40.64056 | -73.77881 | 19 ft | 5 kts | 188° |
| 2026-05-03 23:29 | 40.64019 | -73.77885 | 19 ft | 5 kts | 168° |
| 2026-05-03 23:29 | 40.63981 | -73.77864 | 19 ft | 7 kts | 153° |
| 2026-05-03 23:29 | 40.63945 | -73.77834 | 20 ft | 7 kts | 153° |
| 2026-05-03 23:30 | 40.63940 | -73.77831 | 22 ft | 0 kts | 153° |
| 2026-05-03 23:32 | 40.63934 | -73.77826 | 21 ft | 2 kts | 153° |
| 2026-05-03 23:32 | 40.63907 | -73.77807 | 19 ft | 6 kts | 148° |
| 2026-05-03 23:32 | 40.63868 | -73.77771 | 19 ft | 8 kts | 144° |
| 2026-05-03 23:32 | 40.63814 | -73.77721 | 18 ft | 8 kts | 145° |
| 2026-05-03 23:33 | 40.63773 | -73.77674 | 18 ft | 9 kts | 124° |
| 2026-05-03 23:33 | 40.63757 | -73.77645 | 19 ft | 2 kts | 143° |
| 2026-05-03 23:33 | 40.63755 | -73.77644 | 19 ft | 0 kts | 171° |
| 2026-05-03 23:33 | 40.63729 | -73.77652 | 18 ft | 6 kts | 206° |
| 2026-05-03 23:34 | 40.63694 | -73.77673 | 18 ft | 3 kts | 169° |
| 2026-05-03 23:34 | 40.63675 | -73.77656 | 18 ft | 4 kts | 133° |
| 2026-05-03 23:34 | 40.63655 | -73.77624 | 20 ft | 5 kts | 128° |
| 2026-05-03 23:34 | 40.63631 | -73.77583 | 18 ft | 6 kts | 128° |
| 2026-05-03 23:35 | 40.63609 | -73.77536 | 19 ft | 6 kts | 120° |
| 2026-05-03 23:35 | 40.63587 | -73.77487 | 20 ft | 6 kts | 120° |
| 2026-05-03 23:35 | 40.63563 | -73.77432 | 20 ft | 8 kts | 120° |
| 2026-05-03 23:35 | 40.63533 | -73.77364 | 19 ft | 10 kts | 123° |
| 2026-05-03 23:36 | 40.63495 | -73.77285 | 19 ft | 11 kts | 121° |
| 2026-05-03 23:36 | 40.63455 | -73.77195 | 19 ft | 12 kts | 120° |
| 2026-05-03 23:36 | 40.63411 | -73.77097 | 19 ft | 13 kts | 122° |
| 2026-05-03 23:36 | 40.63366 | -73.76999 | 18 ft | 13 kts | 120° |
| 2026-05-03 23:37 | 40.63340 | -73.76947 | 18 ft | 7 kts | 135° |
| 2026-05-03 23:37 | 40.63304 | -73.76935 | 18 ft | 5 kts | 195° |
| 2026-05-03 23:37 | 40.63271 | -73.76945 | 18 ft | 6 kts | 187° |
| 2026-05-03 23:37 | 40.63226 | -73.76950 | 19 ft | 7 kts | 180° |
| 2026-05-03 23:38 | 40.63172 | -73.76950 | 19 ft | 8 kts | 182° |
| 2026-05-03 23:38 | 40.63113 | -73.76967 | 19 ft | 9 kts | 201° |
| 2026-05-03 23:38 | 40.63052 | -73.77004 | 18 ft | 10 kts | 210° |
| 2026-05-03 23:38 | 40.62994 | -73.77051 | 20 ft | 10 kts | 211° |
| 2026-05-03 23:39 | 40.62934 | -73.77097 | 19 ft | 10 kts | 211° |
| 2026-05-03 23:39 | 40.62876 | -73.77143 | 20 ft | 6 kts | 211° |
| 2026-05-03 23:39 | 40.62859 | -73.77157 | 20 ft | 3 kts | 211° |
| 2026-05-03 23:39 | 40.62837 | -73.77173 | 20 ft | 4 kts | 211° |
| 2026-05-03 23:40 | 40.62819 | -73.77200 | 20 ft | 3 kts | 264° |
| 2026-05-03 23:40 | 40.62825 | -73.77230 | 20 ft | 4 kts | 296° |
| 2026-05-03 23:40 | 40.62833 | -73.77248 | 23 ft | 0 kts | 299° |
| 2026-05-03 23:41 | 40.62833 | -73.77249 | 23 ft | 0 kts | 299° |
| 2026-05-03 23:42 | 40.62845 | -73.77277 | 21 ft | 13 kts | 299° |
| 2026-05-03 23:42 | 40.63012 | -73.77644 | 23 ft | 84 kts | 301° |
| 2026-05-03 23:42 | 40.63435 | -73.78578 | 20 ft | 150 kts | 301° |
| 2026-05-03 23:42 | 40.64037 | -73.79888 | 370 ft | 177 kts | 301° |
| 2026-05-03 23:43 | 40.64688 | -73.81266 | 1178 ft | 177 kts | 300° |
| 2026-05-03 23:43 | 40.65326 | -73.82614 | 2147 ft | 173 kts | 303° |
| 2026-05-03 23:43 | 40.66000 | -73.84007 | 2814 ft | 183 kts | 301° |
| 2026-05-03 23:43 | 40.66646 | -73.85398 | 3740 ft | 174 kts | 301° |
| 2026-05-03 23:44 | 40.67310 | -73.86798 | 4357 ft | 186 kts | 302° |
| 2026-05-03 23:44 | 40.67991 | -73.88262 | 5113 ft | 187 kts | 301° |
| 2026-05-03 23:44 | 40.68627 | -73.89747 | 5888 ft | 185 kts | 296° |
| 2026-05-03 23:44 | 40.69232 | -73.91290 | 6431 ft | 198 kts | 297° |
| 2026-05-03 23:45 | 40.69926 | -73.92971 | 6726 ft | 224 kts | 299° |
| 2026-05-03 23:45 | 40.70743 | -73.94849 | 7163 ft | 246 kts | 300° |
| 2026-05-03 23:45 | 40.71651 | -73.96812 | 7785 ft | 262 kts | 301° |
| 2026-05-03 23:45 | 40.72639 | -73.98902 | 8455 ft | 275 kts | 302° |
| 2026-05-03 23:46 | 40.73478 | -74.00668 | 9099 ft | 281 kts | 302° |
| 2026-05-03 23:46 | 40.74517 | -74.02861 | 9961 ft | 285 kts | 302° |
| 2026-05-03 23:46 | 40.75570 | -74.05094 | 10798 ft | 289 kts | 301° |
| 2026-05-03 23:46 | 40.76632 | -74.07356 | 11613 ft | 292 kts | 301° |
| 2026-05-03 23:47 | 40.77640 | -74.09702 | 12372 ft | 296 kts | 290° |
| 2026-05-03 23:47 | 40.77988 | -74.12348 | 13116 ft | 299 kts | 275° |
| 2026-05-03 23:47 | 40.78117 | -74.15095 | 13843 ft | 302 kts | 271° |
| 2026-05-03 23:47 | 40.78109 | -74.17887 | 14554 ft | 306 kts | 269° |
| 2026-05-03 23:48 | 40.78344 | -74.20709 | 14945 ft | 321 kts | 285° |
| 2026-05-03 23:48 | 40.79012 | -74.23609 | 15170 ft | 339 kts | 288° |
| 2026-05-03 23:48 | 40.79790 | -74.26624 | 15472 ft | 355 kts | 289° |
| 2026-05-03 23:48 | 40.80627 | -74.29723 | 15976 ft | 362 kts | 289° |
| 2026-05-03 23:49 | 40.81488 | -74.32860 | 16589 ft | 366 kts | 290° |
| 2026-05-03 23:49 | 40.82372 | -74.36018 | 17187 ft | 369 kts | 290° |
| 2026-05-03 23:49 | 40.83269 | -74.39157 | 17750 ft | 372 kts | 290° |
| 2026-05-03 23:49 | 40.84167 | -74.42381 | 18296 ft | 375 kts | 289° |
| 2026-05-03 23:50 | 40.84997 | -74.45663 | 18831 ft | 379 kts | 288° |
| 2026-05-03 23:50 | 40.85538 | -74.47912 | 19175 ft | 381 kts | 287° |
| 2026-05-03 23:50 | 40.86612 | -74.52347 | 19832 ft | 385 kts | 288° |
| 2026-05-03 23:50 | 40.87434 | -74.55732 | 20322 ft | 388 kts | 288° |
| 2026-05-03 23:51 | 40.88264 | -74.59143 | 20787 ft | 391 kts | 288° |
| 2026-05-03 23:51 | 40.89098 | -74.62571 | 21241 ft | 394 kts | 288° |
| 2026-05-03 23:51 | 40.89925 | -74.65985 | 21662 ft | 397 kts | 288° |
| 2026-05-03 23:51 | 40.90769 | -74.69472 | 22087 ft | 399 kts | 288° |
| 2026-05-03 23:52 | 40.91617 | -74.72973 | 22501 ft | 402 kts | 287° |
| 2026-05-03 23:52 | 40.92468 | -74.76501 | 22879 ft | 405 kts | 288° |
| 2026-05-03 23:52 | 40.93326 | -74.80062 | 23250 ft | 407 kts | 288° |
| 2026-05-03 23:52 | 40.94184 | -74.83623 | 23654 ft | 409 kts | 287° |
| 2026-05-03 23:53 | 40.95048 | -74.87212 | 24009 ft | 411 kts | 288° |
| 2026-05-03 23:53 | 40.95914 | -74.90829 | 24342 ft | 413 kts | 287° |
| 2026-05-03 23:53 | 40.96688 | -74.94500 | 24651 ft | 416 kts | 277° |
| 2026-05-03 23:53 | 40.96611 | -74.98307 | 24965 ft | 417 kts | 261° |
| 2026-05-03 23:54 | 40.96050 | -75.01517 | 25234 ft | 419 kts | 253° |
| 2026-05-03 23:54 | 40.95141 | -75.05133 | 25538 ft | 421 kts | 250° |
| 2026-05-03 23:54 | 40.94170 | -75.08785 | 25830 ft | 423 kts | 251° |
| 2026-05-03 23:54 | 40.93226 | -75.12479 | 26108 ft | 425 kts | 252° |
| 2026-05-03 23:55 | 40.92344 | -75.16220 | 26375 ft | 427 kts | 253° |
| 2026-05-03 23:55 | 40.91473 | -75.19981 | 26650 ft | 429 kts | 253° |
| 2026-05-03 23:55 | 40.90601 | -75.23756 | 26897 ft | 431 kts | 253° |
| 2026-05-03 23:55 | 40.89709 | -75.27556 | 27138 ft | 434 kts | 252° |
| 2026-05-03 23:56 | 40.88824 | -75.31311 | 27439 ft | 434 kts | 253° |
| 2026-05-03 23:56 | 40.87928 | -75.35126 | 27670 ft | 436 kts | 252° |
| 2026-05-03 23:56 | 40.87026 | -75.38948 | 27910 ft | 437 kts | 252° |
| 2026-05-03 23:56 | 40.86116 | -75.42792 | 28137 ft | 439 kts | 252° |
| 2026-05-03 23:57 | 40.85212 | -75.46644 | 28359 ft | 441 kts | 253° |
| 2026-05-03 23:57 | 40.84297 | -75.50517 | 28582 ft | 442 kts | 252° |
| 2026-05-03 23:57 | 40.83376 | -75.54387 | 28779 ft | 443 kts | 252° |
| 2026-05-03 23:57 | 40.82451 | -75.58286 | 28976 ft | 445 kts | 252° |
| 2026-05-03 23:58 | 40.81535 | -75.62140 | 29142 ft | 446 kts | 252° |
| 2026-05-03 23:58 | 40.80602 | -75.66046 | 29306 ft | 447 kts | 252° |
| 2026-05-03 23:58 | 40.79666 | -75.69966 | 29443 ft | 448 kts | 252° |
| 2026-05-03 23:58 | 40.78728 | -75.73897 | 29570 ft | 449 kts | 252° |
| 2026-05-03 23:59 | 40.77786 | -75.77824 | 29706 ft | 450 kts | 252° |
| 2026-05-03 23:59 | 40.76838 | -75.81767 | 29815 ft | 452 kts | 252° |
| 2026-05-03 23:59 | 40.75889 | -75.85720 | 29944 ft | 452 kts | 252° |
| 2026-05-03 23:59 | 40.74934 | -75.89686 | 30057 ft | 453 kts | 252° |
| 2026-05-04 00:00 | 40.73030 | -75.97562 | 30251 ft | 455 kts | 252° |
| 2026-05-04 00:00 | 40.71238 | -76.04987 | 30406 ft | 456 kts | 252° |
| 2026-05-04 00:01 | 40.69298 | -76.12957 | 30573 ft | 457 kts | 252° |
| 2026-05-04 00:01 | 40.67406 | -76.20965 | 30656 ft | 458 kts | 258° |
| 2026-05-04 00:02 | 40.67165 | -76.25129 | 30723 ft | 458 kts | 271° |
| 2026-05-04 00:02 | 40.67369 | -76.29316 | 30761 ft | 458 kts | 276° |
| 2026-05-04 00:02 | 40.68571 | -76.37508 | 30814 ft | 460 kts | 283° |
| 2026-05-04 00:03 | 40.69292 | -76.41618 | 30920 ft | 460 kts | 283° |
| 2026-05-04 00:03 | 40.69955 | -76.45740 | 30949 ft | 460 kts | 281° |
| 2026-05-04 00:03 | 40.71169 | -76.54017 | 31021 ft | 460 kts | 281° |
| 2026-05-04 00:04 | 40.72383 | -76.62250 | 31047 ft | 461 kts | 281° |
| 2026-05-04 00:04 | 40.73600 | -76.70536 | 31078 ft | 461 kts | 281° |
| 2026-05-04 00:05 | 40.74813 | -76.78845 | 31162 ft | 461 kts | 281° |
| 2026-05-04 00:05 | 40.76015 | -76.87137 | 31181 ft | 461 kts | 281° |
| 2026-05-04 00:06 | 40.77218 | -76.95444 | 31182 ft | 461 kts | 281° |
| 2026-05-04 00:06 | 40.78332 | -77.03196 | 31194 ft | 461 kts | 281° |
| 2026-05-04 00:07 | 40.79512 | -77.11447 | 31202 ft | 461 kts | 281° |
| 2026-05-04 00:07 | 40.80696 | -77.19773 | 31210 ft | 461 kts | 281° |
| 2026-05-04 00:08 | 40.81872 | -77.28097 | 31210 ft | 462 kts | 281° |
| 2026-05-04 00:08 | 40.83040 | -77.36405 | 31283 ft | 463 kts | 280° |
| 2026-05-04 00:09 | 40.84203 | -77.44767 | 31348 ft | 463 kts | 280° |
| 2026-05-04 00:09 | 40.85365 | -77.53140 | 31403 ft | 464 kts | 280° |
| 2026-05-04 00:10 | 40.86526 | -77.61522 | 31407 ft | 464 kts | 280° |
| 2026-05-04 00:10 | 40.87684 | -77.69907 | 31431 ft | 465 kts | 280° |
| 2026-05-04 00:11 | 40.88823 | -77.78254 | 31488 ft | 464 kts | 280° |
| 2026-05-04 00:11 | 40.89959 | -77.86639 | 31492 ft | 464 kts | 280° |
| 2026-05-04 00:12 | 40.91102 | -77.95037 | 31507 ft | 464 kts | 280° |
| 2026-05-04 00:12 | 40.92123 | -78.02898 | 31529 ft | 467 kts | 279° |
| 2026-05-04 00:13 | 40.93165 | -78.11311 | 31713 ft | 465 kts | 279° |
| 2026-05-04 00:13 | 40.93681 | -78.15522 | 31865 ft | 462 kts | 279° |
| 2026-05-04 00:13 | 40.94198 | -78.19699 | 31933 ft | 461 kts | 279° |
| 2026-05-04 00:14 | 40.95229 | -78.28055 | 31979 ft | 460 kts | 279° |
| 2026-05-04 00:14 | 40.96248 | -78.36402 | 31998 ft | 460 kts | 279° |
| 2026-05-04 00:15 | 40.97241 | -78.44718 | 32000 ft | 460 kts | 278° |
| 2026-05-04 00:15 | 40.98202 | -78.53091 | 32001 ft | 461 kts | 279° |
| 2026-05-04 00:16 | 40.99214 | -78.61468 | 32000 ft | 461 kts | 279° |
| 2026-05-04 00:16 | 41.00151 | -78.69290 | 32000 ft | 461 kts | 279° |
| 2026-05-04 00:17 | 41.01140 | -78.77697 | 32002 ft | 462 kts | 278° |
| 2026-05-04 00:17 | 41.02117 | -78.86044 | 32001 ft | 462 kts | 278° |
| 2026-05-04 00:18 | 41.03098 | -78.94449 | 32000 ft | 462 kts | 278° |
| 2026-05-04 00:18 | 41.04073 | -79.02870 | 32001 ft | 462 kts | 278° |
| 2026-05-04 00:19 | 41.05041 | -79.11285 | 32001 ft | 462 kts | 278° |
| 2026-05-04 00:19 | 41.05998 | -79.19658 | 32001 ft | 462 kts | 278° |
| 2026-05-04 00:20 | 41.06955 | -79.28090 | 32000 ft | 462 kts | 278° |
| 2026-05-04 00:20 | 41.07905 | -79.36512 | 32000 ft | 462 kts | 278° |
| 2026-05-04 00:21 | 41.08850 | -79.44949 | 32000 ft | 462 kts | 278° |
| 2026-05-04 00:21 | 41.09787 | -79.53380 | 32000 ft | 462 kts | 278° |
| 2026-05-04 00:22 | 41.10712 | -79.61753 | 32000 ft | 462 kts | 278° |
| 2026-05-04 00:22 | 41.11639 | -79.70195 | 32000 ft | 462 kts | 278° |
| 2026-05-04 00:23 | 41.12558 | -79.78629 | 32000 ft | 462 kts | 278° |
| 2026-05-04 00:23 | 41.13472 | -79.87077 | 32000 ft | 462 kts | 278° |
| 2026-05-04 00:24 | 41.14373 | -79.95466 | 32000 ft | 462 kts | 278° |
| 2026-05-04 00:24 | 41.15275 | -80.03919 | 32000 ft | 462 kts | 278° |
| 2026-05-04 00:25 | 41.16170 | -80.12363 | 32000 ft | 462 kts | 278° |
| 2026-05-04 00:25 | 41.17058 | -80.20809 | 32000 ft | 462 kts | 278° |
| 2026-05-04 00:26 | 41.17935 | -80.29215 | 32000 ft | 462 kts | 278° |
| 2026-05-04 00:26 | 41.18811 | -80.37665 | 32000 ft | 462 kts | 278° |
| 2026-05-04 00:27 | 41.19682 | -80.46128 | 32000 ft | 462 kts | 277° |
| 2026-05-04 00:27 | 41.20544 | -80.54581 | 32000 ft | 462 kts | 277° |
| 2026-05-04 00:28 | 41.21402 | -80.63047 | 31999 ft | 462 kts | 277° |
| 2026-05-04 00:28 | 41.22253 | -80.71504 | 32000 ft | 462 kts | 277° |
| 2026-05-04 00:29 | 41.23093 | -80.79919 | 32000 ft | 462 kts | 277° |
| 2026-05-04 00:29 | 41.23931 | -80.88379 | 32000 ft | 462 kts | 277° |
| 2026-05-04 00:30 | 41.24763 | -80.96853 | 31999 ft | 462 kts | 277° |
| 2026-05-04 00:30 | 41.25589 | -81.05320 | 32000 ft | 462 kts | 277° |
| 2026-05-04 00:31 | 41.26404 | -81.13741 | 31999 ft | 462 kts | 277° |
| 2026-05-04 00:31 | 41.27218 | -81.22213 | 32000 ft | 462 kts | 277° |
| 2026-05-04 00:32 | 41.28026 | -81.30689 | 32000 ft | 462 kts | 277° |
| 2026-05-04 00:32 | 41.28827 | -81.39167 | 32000 ft | 462 kts | 277° |
| 2026-05-04 00:33 | 41.30013 | -81.51836 | 32000 ft | 462 kts | 277° |
| 2026-05-04 00:34 | 41.30799 | -81.60328 | 32001 ft | 462 kts | 277° |
| 2026-05-04 00:34 | 41.31579 | -81.68818 | 31999 ft | 462 kts | 277° |
| 2026-05-04 00:35 | 41.32351 | -81.77304 | 32000 ft | 462 kts | 277° |
| 2026-05-04 00:35 | 41.33113 | -81.85750 | 32000 ft | 462 kts | 277° |
| 2026-05-04 00:36 | 41.33873 | -81.94240 | 32000 ft | 462 kts | 277° |
| 2026-05-04 00:36 | 41.34628 | -82.02743 | 32000 ft | 462 kts | 277° |
| 2026-05-04 00:37 | 41.35515 | -82.11149 | 31999 ft | 462 kts | 284° |
| 2026-05-04 00:37 | 41.36216 | -82.19612 | 32005 ft | 461 kts | 272° |
| 2026-05-04 00:38 | 41.36745 | -82.28107 | 32004 ft | 461 kts | 277° |
| 2026-05-04 00:38 | 41.37554 | -82.36576 | 32002 ft | 461 kts | 277° |
| 2026-05-04 00:39 | 41.38319 | -82.45050 | 32001 ft | 461 kts | 276° |
| 2026-05-04 00:39 | 41.39015 | -82.53491 | 32000 ft | 461 kts | 276° |
| 2026-05-04 00:40 | 41.39718 | -82.61985 | 32000 ft | 462 kts | 276° |
| 2026-05-04 00:40 | 41.40427 | -82.70478 | 31999 ft | 462 kts | 276° |
| 2026-05-04 00:41 | 41.41127 | -82.78984 | 31999 ft | 462 kts | 276° |
| 2026-05-04 00:41 | 41.41814 | -82.87432 | 32000 ft | 462 kts | 276° |
| 2026-05-04 00:42 | 41.43169 | -82.95774 | 32001 ft | 463 kts | 285° |
| 2026-05-04 00:42 | 41.45001 | -83.04092 | 31994 ft | 472 kts | 282° |
| 2026-05-04 00:42 | 41.45295 | -83.07581 | 32016 ft | 474 kts | 269° |
| 2026-05-04 00:43 | 41.44910 | -83.11954 | 32040 ft | 477 kts | 260° |
| 2026-05-04 00:43 | 41.44677 | -83.16357 | 32027 ft | 480 kts | 275° |
| 2026-05-04 00:43 | 41.45404 | -83.20697 | 32029 ft | 482 kts | 291° |
| 2026-05-04 00:43 | 41.47000 | -83.24553 | 32031 ft | 482 kts | 307° |
| 2026-05-04 00:44 | 41.49340 | -83.27716 | 32040 ft | 480 kts | 320° |
| 2026-05-04 00:44 | 41.54789 | -83.32773 | 32016 ft | 478 kts | 338° |
| 2026-05-04 00:45 | 41.61240 | -83.34811 | 32017 ft | 477 kts | 351° |
| 2026-05-04 00:45 | 41.66698 | -83.35773 | 32005 ft | 476 kts | 352° |
| 2026-05-04 00:46 | 41.74297 | -83.37587 | 31588 ft | 484 kts | 348° |
| 2026-05-04 00:46 | 41.77602 | -83.38515 | 31095 ft | 478 kts | 348° |
| 2026-05-04 00:46 | 41.80796 | -83.39365 | 30588 ft | 461 kts | 349° |
| 2026-05-04 00:46 | 41.83894 | -83.40176 | 30080 ft | 447 kts | 349° |
| 2026-05-04 00:47 | 41.86909 | -83.40969 | 29560 ft | 436 kts | 348° |
| 2026-05-04 00:47 | 41.88884 | -83.41489 | 29225 ft | 439 kts | 348° |
| 2026-05-04 00:47 | 41.91915 | -83.42288 | 28725 ft | 448 kts | 348° |
| 2026-05-04 00:47 | 41.94994 | -83.43103 | 28236 ft | 455 kts | 348° |
| 2026-05-04 00:48 | 41.98129 | -83.43933 | 27752 ft | 462 kts | 349° |
| 2026-05-04 00:48 | 42.00921 | -83.44689 | 27321 ft | 467 kts | 346° |
| 2026-05-04 00:48 | 42.04790 | -83.46867 | 26681 ft | 470 kts | 328° |
| 2026-05-04 00:48 | 42.07489 | -83.49356 | 26207 ft | 473 kts | 323° |
| 2026-05-04 00:49 | 42.09231 | -83.51221 | 25878 ft | 474 kts | 319° |
| 2026-05-04 00:49 | 42.11591 | -83.54243 | 25439 ft | 470 kts | 314° |
| 2026-05-04 00:49 | 42.13811 | -83.57323 | 25190 ft | 449 kts | 314° |
| 2026-05-04 00:49 | 42.15973 | -83.60300 | 25077 ft | 439 kts | 314° |
| 2026-05-04 00:50 | 42.18131 | -83.63158 | 25025 ft | 430 kts | 316° |
| 2026-05-04 00:50 | 42.20259 | -83.65918 | 24993 ft | 423 kts | 315° |
| 2026-05-04 00:50 | 42.22366 | -83.68672 | 24995 ft | 422 kts | 315° |
| 2026-05-04 00:50 | 42.24469 | -83.71426 | 24992 ft | 421 kts | 316° |
| 2026-05-04 00:51 | 42.26572 | -83.74170 | 24988 ft | 421 kts | 315° |
| 2026-05-04 00:51 | 42.28685 | -83.76940 | 25000 ft | 428 kts | 315° |
| 2026-05-04 00:51 | 42.30813 | -83.79735 | 25003 ft | 436 kts | 315° |
| 2026-05-04 00:51 | 42.33010 | -83.82616 | 25015 ft | 443 kts | 315° |
| 2026-05-04 00:52 | 42.35233 | -83.85537 | 25016 ft | 446 kts | 315° |
| 2026-05-04 00:52 | 42.37445 | -83.88449 | 25003 ft | 444 kts | 315° |
| 2026-05-04 00:52 | 42.39659 | -83.91353 | 25009 ft | 442 kts | 315° |
| 2026-05-04 00:52 | 42.41861 | -83.94254 | 25001 ft | 441 kts | 315° |
| 2026-05-04 00:53 | 42.44052 | -83.97151 | 25003 ft | 439 kts | 315° |
| 2026-05-04 00:53 | 42.46237 | -84.00030 | 25002 ft | 438 kts | 315° |
| 2026-05-04 00:53 | 42.48387 | -84.02873 | 24996 ft | 437 kts | 315° |
| 2026-05-04 00:53 | 42.50569 | -84.05764 | 24627 ft | 445 kts | 315° |
| 2026-05-04 00:54 | 42.52804 | -84.08719 | 24283 ft | 451 kts | 315° |
| 2026-05-04 00:54 | 42.55056 | -84.11705 | 24132 ft | 453 kts | 315° |
| 2026-05-04 00:54 | 42.57307 | -84.14697 | 24061 ft | 452 kts | 315° |
| 2026-05-04 00:54 | 42.59554 | -84.17679 | 24031 ft | 451 kts | 315° |
| 2026-05-04 00:55 | 42.61787 | -84.20647 | 24015 ft | 449 kts | 315° |
| 2026-05-04 00:55 | 42.64014 | -84.23616 | 24007 ft | 448 kts | 315° |
| 2026-05-04 00:55 | 42.66234 | -84.26576 | 24002 ft | 446 kts | 315° |
| 2026-05-04 00:55 | 42.68446 | -84.29523 | 24000 ft | 444 kts | 315° |
| 2026-05-04 00:56 | 42.70615 | -84.32421 | 23999 ft | 443 kts | 315° |
| 2026-05-04 00:56 | 42.72807 | -84.35358 | 23998 ft | 441 kts | 315° |
| 2026-05-04 00:56 | 42.74677 | -84.37854 | 23999 ft | 440 kts | 315° |
| 2026-05-04 00:56 | 42.76858 | -84.40775 | 23999 ft | 439 kts | 315° |
| 2026-05-04 00:57 | 42.79030 | -84.43694 | 23999 ft | 438 kts | 315° |
| 2026-05-04 00:57 | 42.81200 | -84.46603 | 23999 ft | 437 kts | 315° |
| 2026-05-04 00:57 | 42.83356 | -84.49502 | 23999 ft | 436 kts | 315° |
| 2026-05-04 00:57 | 42.85512 | -84.52406 | 23999 ft | 435 kts | 315° |
| 2026-05-04 00:58 | 42.87666 | -84.55301 | 23999 ft | 434 kts | 315° |
| 2026-05-04 00:58 | 42.89785 | -84.58158 | 23999 ft | 434 kts | 315° |
| 2026-05-04 00:58 | 42.91926 | -84.61053 | 23999 ft | 433 kts | 315° |
| 2026-05-04 00:58 | 42.94067 | -84.63939 | 23999 ft | 432 kts | 315° |
| 2026-05-04 00:59 | 42.96196 | -84.66819 | 23999 ft | 432 kts | 315° |
| 2026-05-04 00:59 | 42.98325 | -84.69707 | 24000 ft | 431 kts | 315° |
| 2026-05-04 00:59 | 43.00174 | -84.72202 | 23999 ft | 430 kts | 315° |
| 2026-05-04 00:59 | 43.02299 | -84.75083 | 24000 ft | 430 kts | 315° |
| 2026-05-04 01:00 | 43.04414 | -84.77959 | 24000 ft | 429 kts | 315° |
| 2026-05-04 01:00 | 43.06534 | -84.80837 | 24000 ft | 429 kts | 315° |
| 2026-05-04 01:00 | 43.08623 | -84.83677 | 24000 ft | 429 kts | 315° |
| 2026-05-04 01:00 | 43.10722 | -84.86558 | 23999 ft | 428 kts | 313° |
| 2026-05-04 01:01 | 43.12417 | -84.89883 | 23990 ft | 427 kts | 295° |
| 2026-05-04 01:01 | 43.13425 | -84.93694 | 24006 ft | 426 kts | 286° |
| 2026-05-04 01:01 | 43.14186 | -84.97611 | 24009 ft | 425 kts | 283° |
| 2026-05-04 01:01 | 43.14638 | -85.01043 | 24007 ft | 425 kts | 276° |
| 2026-05-04 01:02 | 43.14798 | -85.05082 | 24010 ft | 425 kts | 271° |
| 2026-05-04 01:02 | 43.14810 | -85.09119 | 24008 ft | 425 kts | 270° |
| 2026-05-04 01:02 | 43.14819 | -85.13163 | 24006 ft | 425 kts | 270° |
| 2026-05-04 01:02 | 43.14880 | -85.17195 | 24003 ft | 424 kts | 272° |
| 2026-05-04 01:03 | 43.14991 | -85.21183 | 24002 ft | 424 kts | 272° |
| 2026-05-04 01:03 | 43.15095 | -85.25224 | 24001 ft | 424 kts | 272° |
| 2026-05-04 01:03 | 43.15193 | -85.29259 | 24001 ft | 424 kts | 272° |
| 2026-05-04 01:03 | 43.15295 | -85.33300 | 24000 ft | 424 kts | 272° |
| 2026-05-04 01:04 | 43.15392 | -85.37329 | 24000 ft | 424 kts | 272° |
| 2026-05-04 01:04 | 43.15487 | -85.41371 | 24000 ft | 424 kts | 272° |
| 2026-05-04 01:04 | 43.15584 | -85.45412 | 24000 ft | 424 kts | 272° |
| 2026-05-04 01:04 | 43.15678 | -85.49442 | 24000 ft | 424 kts | 272° |
| 2026-05-04 01:05 | 43.15767 | -85.53428 | 24000 ft | 424 kts | 271° |
| 2026-05-04 01:05 | 43.15861 | -85.57467 | 24000 ft | 424 kts | 272° |
| 2026-05-04 01:05 | 43.15952 | -85.61507 | 23945 ft | 425 kts | 271° |
| 2026-05-04 01:05 | 43.16041 | -85.65596 | 23521 ft | 436 kts | 271° |
| 2026-05-04 01:06 | 43.16128 | -85.69797 | 23116 ft | 445 kts | 272° |
| 2026-05-04 01:06 | 43.16223 | -85.74062 | 22781 ft | 451 kts | 271° |
| 2026-05-04 01:06 | 43.16310 | -85.78332 | 22891 ft | 446 kts | 271° |
| 2026-05-04 01:06 | 43.16393 | -85.82563 | 23096 ft | 439 kts | 271° |
| 2026-05-04 01:07 | 43.16480 | -85.86631 | 23534 ft | 427 kts | 271° |
| 2026-05-04 01:07 | 43.16558 | -85.90633 | 23968 ft | 416 kts | 271° |
| 2026-05-04 01:07 | 43.16630 | -85.94561 | 24191 ft | 411 kts | 271° |
| 2026-05-04 01:07 | 43.16706 | -85.98498 | 24031 ft | 416 kts | 271° |
| 2026-05-04 01:08 | 43.16769 | -86.01920 | 23776 ft | 422 kts | 271° |
| 2026-05-04 01:08 | 43.16838 | -86.05995 | 23271 ft | 435 kts | 271° |
| 2026-05-04 01:08 | 43.16854 | -86.10210 | 22751 ft | 447 kts | 269° |
| 2026-05-04 01:08 | 43.16784 | -86.14508 | 22222 ft | 457 kts | 268° |
| 2026-05-04 01:09 | 43.16708 | -86.18826 | 21702 ft | 454 kts | 269° |
| 2026-05-04 01:09 | 43.16650 | -86.23051 | 21170 ft | 434 kts | 269° |
| 2026-05-04 01:09 | 43.16594 | -86.27097 | 20650 ft | 418 kts | 269° |
| 2026-05-04 01:09 | 43.16533 | -86.31012 | 20141 ft | 404 kts | 269° |
| 2026-05-04 01:10 | 43.16480 | -86.34816 | 19647 ft | 398 kts | 269° |
| 2026-05-04 01:10 | 43.16418 | -86.38643 | 19162 ft | 403 kts | 269° |
| 2026-05-04 01:10 | 43.16360 | -86.42459 | 18683 ft | 397 kts | 269° |
| 2026-05-04 01:10 | 43.16298 | -86.46181 | 18208 ft | 385 kts | 268° |
| 2026-05-04 01:11 | 43.16236 | -86.49801 | 17742 ft | 375 kts | 269° |
| 2026-05-04 01:11 | 43.16177 | -86.53284 | 17300 ft | 366 kts | 269° |
| 2026-05-04 01:11 | 43.16114 | -86.56724 | 16858 ft | 358 kts | 268° |
| 2026-05-04 01:11 | 43.16054 | -86.60102 | 16433 ft | 351 kts | 269° |
| 2026-05-04 01:12 | 43.15996 | -86.63415 | 16019 ft | 345 kts | 269° |
| 2026-05-04 01:12 | 43.15934 | -86.66670 | 15609 ft | 339 kts | 268° |
| 2026-05-04 01:12 | 43.15875 | -86.69862 | 15209 ft | 333 kts | 268° |
| 2026-05-04 01:12 | 43.15817 | -86.73015 | 14814 ft | 329 kts | 268° |
| 2026-05-04 01:13 | 43.15754 | -86.76124 | 14428 ft | 324 kts | 268° |
| 2026-05-04 01:13 | 43.15695 | -86.79194 | 14046 ft | 320 kts | 268° |
| 2026-05-04 01:13 | 43.15637 | -86.82177 | 13677 ft | 316 kts | 268° |
| 2026-05-04 01:13 | 43.15576 | -86.85172 | 13302 ft | 313 kts | 268° |
| 2026-05-04 01:14 | 43.15517 | -86.88132 | 12937 ft | 309 kts | 268° |
| 2026-05-04 01:14 | 43.15457 | -86.91051 | 12579 ft | 306 kts | 268° |
| 2026-05-04 01:14 | 43.15396 | -86.93945 | 12228 ft | 302 kts | 268° |
| 2026-05-04 01:14 | 43.15338 | -86.96747 | 12217 ft | 287 kts | 268° |
| 2026-05-04 01:15 | 43.15278 | -86.99419 | 12198 ft | 275 kts | 268° |
| 2026-05-04 01:15 | 43.15218 | -87.01689 | 11933 ft | 285 kts | 268° |
| 2026-05-04 01:15 | 43.15149 | -87.04488 | 11555 ft | 303 kts | 268° |
| 2026-05-04 01:15 | 43.15069 | -87.07401 | 11183 ft | 317 kts | 268° |
| 2026-05-04 01:16 | 43.14988 | -87.10471 | 10801 ft | 328 kts | 268° |
| 2026-05-04 01:16 | 43.14857 | -87.13634 | 10390 ft | 337 kts | 261° |
| 2026-05-04 01:16 | 43.14126 | -87.16699 | 9979 ft | 344 kts | 247° |
| 2026-05-04 01:16 | 43.13173 | -87.19732 | 9563 ft | 349 kts | 246° |
| 2026-05-04 01:17 | 43.12180 | -87.22791 | 9137 ft | 353 kts | 246° |
| 2026-05-04 01:17 | 43.11169 | -87.25852 | 8711 ft | 347 kts | 245° |
| 2026-05-04 01:17 | 43.10187 | -87.28789 | 8293 ft | 332 kts | 245° |
| 2026-05-04 01:17 | 43.09244 | -87.31599 | 7900 ft | 319 kts | 245° |
| 2026-05-04 01:18 | 43.08344 | -87.34275 | 7545 ft | 308 kts | 245° |
| 2026-05-04 01:18 | 43.07479 | -87.36849 | 7508 ft | 288 kts | 245° |
| 2026-05-04 01:18 | 43.06665 | -87.39265 | 7365 ft | 275 kts | 245° |
| 2026-05-04 01:18 | 43.05878 | -87.41606 | 7097 ft | 268 kts | 245° |
| 2026-05-04 01:19 | 43.05108 | -87.43897 | 6866 ft | 262 kts | 245° |
| 2026-05-04 01:19 | 43.04357 | -87.46135 | 6657 ft | 256 kts | 245° |
| 2026-05-04 01:19 | 43.03622 | -87.48322 | 6466 ft | 250 kts | 245° |
| 2026-05-04 01:19 | 43.02907 | -87.50455 | 6307 ft | 244 kts | 245° |
| 2026-05-04 01:20 | 43.02210 | -87.52532 | 6159 ft | 237 kts | 245° |
| 2026-05-04 01:20 | 43.01533 | -87.54552 | 6027 ft | 231 kts | 245° |
| 2026-05-04 01:20 | 43.00884 | -87.56488 | 5906 ft | 224 kts | 245° |
| 2026-05-04 01:20 | 43.00243 | -87.58400 | 5793 ft | 218 kts | 245° |
| 2026-05-04 01:21 | 42.99753 | -87.60005 | 5711 ft | 212 kts | 251° |
| 2026-05-04 01:21 | 42.99304 | -87.61875 | 5628 ft | 203 kts | 253° |
| 2026-05-04 01:21 | 42.98918 | -87.63692 | 5542 ft | 195 kts | 255° |
| 2026-05-04 01:21 | 42.98569 | -87.65442 | 5454 ft | 187 kts | 255° |
| 2026-05-04 01:22 | 42.98245 | -87.67101 | 5441 ft | 175 kts | 255° |
| 2026-05-04 01:22 | 42.97929 | -87.68683 | 5318 ft | 172 kts | 255° |
| 2026-05-04 01:22 | 42.97623 | -87.70253 | 5212 ft | 174 kts | 256° |
| 2026-05-04 01:22 | 42.97310 | -87.71899 | 5350 ft | 173 kts | 255° |
| 2026-05-04 01:23 | 42.97036 | -87.73308 | 5832 ft | 137 kts | 256° |